sensor_id;sensor_type;location;lat;lon;timestamp;pressure;altitude;pressure_sealevel;temperature;humidity
65359;BME280;52491;45.900;6.346;2023-04-24T00:00:34;93252.63;;;24.12;33.87
65359;BME280;52491;45.900;6.346;2023-04-24T00:03:01;93257.66;;;24.14;34.06
65359;BME280;52491;45.900;6.346;2023-04-24T00:05:28;93255.28;;;24.12;33.97
65359;BME280;52491;45.900;6.346;2023-04-24T00:07:54;93251.53;;;24.13;33.90
65359;BME280;52491;45.900;6.346;2023-04-24T00:10:20;93249.94;;;24.12;33.79
65359;BME280;52491;45.900;6.346;2023-04-24T00:12:46;93245.72;;;24.11;33.76
65359;BME280;52491;45.900;6.346;2023-04-24T00:15:11;93259.03;;;24.11;33.97
65359;BME280;52491;45.900;6.346;2023-04-24T00:17:37;93252.88;;;24.11;33.68
65359;BME280;52491;45.900;6.346;2023-04-24T00:20:04;93260.06;;;24.10;33.94
65359;BME280;52491;45.900;6.346;2023-04-24T00:22:30;93260.38;;;24.09;33.70
65359;BME280;52491;45.900;6.346;2023-04-24T00:24:56;93251.28;;;24.10;33.66
65359;BME280;52491;45.900;6.346;2023-04-24T00:27:22;93263.81;;;24.09;33.91
65359;BME280;52491;45.900;6.346;2023-04-24T00:29:47;93276.34;;;24.09;33.66
65359;BME280;52491;45.900;6.346;2023-04-24T00:32:13;93260.38;;;24.09;33.78
65359;BME280;52491;45.900;6.346;2023-04-24T00:34:39;93261.41;;;24.08;33.70
65359;BME280;52491;45.900;6.346;2023-04-24T00:37:05;93263.03;;;24.09;33.72
65359;BME280;52491;45.900;6.346;2023-04-24T00:39:31;93264.09;;;24.08;33.80
65359;BME280;52491;45.900;6.346;2023-04-24T00:41:57;93258.75;;;24.08;33.84
65359;BME280;52491;45.900;6.346;2023-04-24T00:44:22;93258.75;;;24.08;33.72
65359;BME280;52491;45.900;6.346;2023-04-24T00:46:49;93254.22;;;24.08;33.57
65359;BME280;52491;45.900;6.346;2023-04-24T00:49:23;93256.09;;;24.08;33.49
65359;BME280;52491;45.900;6.346;2023-04-24T00:51:48;93257.97;;;24.07;33.73
65359;BME280;52491;45.900;6.346;2023-04-24T00:54:15;93257.97;;;24.07;33.44
65359;BME280;52491;45.900;6.346;2023-04-24T00:56:41;93264.09;;;24.08;33.69
65359;BME280;52491;45.900;6.346;2023-04-24T00:59:08;93257.19;;;24.07;33.61
65359;BME280;52491;45.900;6.346;2023-04-24T01:01:34;93261.72;;;24.06;33.43
65359;BME280;52491;45.900;6.346;2023-04-24T01:04:00;93261.72;;;24.06;33.49
65359;BME280;52491;45.900;6.346;2023-04-24T01:06:28;93255.59;;;24.06;33.33
65359;BME280;52491;45.900;6.346;2023-04-24T01:08:54;93242.00;;;24.07;33.43
65359;BME280;52491;45.900;6.346;2023-04-24T01:11:21;93244.94;;;24.06;33.64
65359;BME280;52491;45.900;6.346;2023-04-24T01:13:47;93243.88;;;24.07;33.31
65359;BME280;52491;45.900;6.346;2023-04-24T01:16:14;93238.53;;;24.07;33.26
65359;BME280;52491;45.900;6.346;2023-04-24T01:18:40;93239.63;;;24.06;33.19
65359;BME280;52491;45.900;6.346;2023-04-24T01:21:08;93236.41;;;24.09;33.15
65359;BME280;52491;45.900;6.346;2023-04-24T01:23:34;93234.00;;;24.07;33.36
65359;BME280;52491;45.900;6.346;2023-04-24T01:26:00;93224.94;;;24.08;33.38
65359;BME280;52491;45.900;6.346;2023-04-24T01:28:25;93226.00;;;24.07;33.16
65359;BME280;52491;45.900;6.346;2023-04-24T01:30:52;93233.22;;;24.07;33.39
65359;BME280;52491;45.900;6.346;2023-04-24T01:33:18;93228.16;;;24.05;33.27
65359;BME280;52491;45.900;6.346;2023-04-24T01:35:43;93237.22;;;24.04;33.42
65359;BME280;52491;45.900;6.346;2023-04-24T01:38:09;93234.81;;;24.03;33.17
65359;BME280;52491;45.900;6.346;2023-04-24T01:40:34;93230.31;;;24.03;33.44
65359;BME280;52491;45.900;6.346;2023-04-24T01:43:00;93230.56;;;24.02;33.49
65359;BME280;52491;45.900;6.346;2023-04-24T01:45:26;93235.09;;;24.01;33.47
65359;BME280;52491;45.900;6.346;2023-04-24T01:47:51;93238.56;;;24.02;33.32
65359;BME280;52491;45.900;6.346;2023-04-24T01:50:18;93249.22;;;24.02;33.12
65359;BME280;52491;45.900;6.346;2023-04-24T01:52:44;93250.28;;;24.01;33.35
65359;BME280;52491;45.900;6.346;2023-04-24T01:55:10;93257.50;;;24.00;33.39
65359;BME280;52491;45.900;6.346;2023-04-24T01:57:36;93247.88;;;23.99;33.32
65359;BME280;52491;45.900;6.346;2023-04-24T02:00:03;93256.66;;;24.00;33.21
65359;BME280;52491;45.900;6.346;2023-04-24T02:02:32;93261.50;;;23.98;33.36
65359;BME280;52491;45.900;6.346;2023-04-24T02:04:58;93259.34;;;24.00;33.41
65359;BME280;52491;45.900;6.346;2023-04-24T02:07:24;93244.44;;;23.99;33.21
65359;BME280;52491;45.900;6.346;2023-04-24T02:09:50;93259.63;;;23.98;33.30
65359;BME280;52491;45.900;6.346;2023-04-24T02:12:15;93260.41;;;23.99;33.18
65359;BME280;52491;45.900;6.346;2023-04-24T02:14:42;93255.88;;;23.99;33.30
65359;BME280;52491;45.900;6.346;2023-04-24T02:17:08;93244.44;;;23.99;33.27
65359;BME280;52491;45.900;6.346;2023-04-24T02:19:34;93248.97;;;23.98;33.23
65359;BME280;52491;45.900;6.346;2023-04-24T02:22:00;93247.38;;;23.97;33.12
65359;BME280;52491;45.900;6.346;2023-04-24T02:24:25;93256.97;;;23.98;32.96
65359;BME280;52491;45.900;6.346;2023-04-24T02:26:51;93252.69;;;23.97;33.30
65359;BME280;52491;45.900;6.346;2023-04-24T02:29:16;93267.09;;;23.96;33.13
65359;BME280;52491;45.900;6.346;2023-04-24T02:31:42;93272.41;;;23.96;33.06
65359;BME280;52491;45.900;6.346;2023-04-24T02:34:08;93267.88;;;23.97;33.13
65359;BME280;52491;45.900;6.346;2023-04-24T02:36:33;93273.72;;;23.99;33.00
65359;BME280;52491;45.900;6.346;2023-04-24T02:38:59;93276.16;;;23.95;33.06
65359;BME280;52491;45.900;6.346;2023-04-24T02:41:26;93283.84;;;23.97;33.03
65359;BME280;52491;45.900;6.346;2023-04-24T02:43:57;93276.94;;;23.96;33.23
65359;BME280;52491;45.900;6.346;2023-04-24T02:46:23;93272.41;;;23.96;32.99
65359;BME280;52491;45.900;6.346;2023-04-24T02:48:49;93275.84;;;23.97;33.00
65359;BME280;52491;45.900;6.346;2023-04-24T02:51:14;93274.28;;;23.96;32.89
65359;BME280;52491;45.900;6.346;2023-04-24T02:53:40;93278.81;;;23.95;32.84
65359;BME280;52491;45.900;6.346;2023-04-24T02:56:05;93271.88;;;23.94;33.13
65359;BME280;52491;45.900;6.346;2023-04-24T02:58:31;93275.34;;;23.95;32.95
65359;BME280;52491;45.900;6.346;2023-04-24T03:00:57;93279.88;;;23.94;32.83
65359;BME280;52491;45.900;6.346;2023-04-24T03:03:22;93282.53;;;23.94;33.11
65359;BME280;52491;45.900;6.346;2023-04-24T03:05:49;93275.34;;;23.95;33.02
65359;BME280;52491;45.900;6.346;2023-04-24T03:08:14;93271.88;;;23.94;33.02
65359;BME280;52491;45.900;6.346;2023-04-24T03:10:40;93266.84;;;23.93;32.95
65359;BME280;52491;45.900;6.346;2023-04-24T03:13:05;93272.97;;;23.93;33.06
65359;BME280;52491;45.900;6.346;2023-04-24T03:15:31;93266.84;;;23.93;32.87
65359;BME280;52491;45.900;6.346;2023-04-24T03:17:57;93263.88;;;23.94;33.30
65359;BME280;52491;45.900;6.346;2023-04-24T03:20:23;93267.38;;;23.95;32.90
65359;BME280;52491;45.900;6.346;2023-04-24T03:22:48;93271.88;;;23.94;32.97
65359;BME280;52491;45.900;6.346;2023-04-24T03:25:14;93286.81;;;23.95;32.91
65359;BME280;52491;45.900;6.346;2023-04-24T03:27:39;93294.50;;;23.97;33.06
65359;BME280;52491;45.900;6.346;2023-04-24T03:30:08;93286.25;;;23.98;32.83
65359;BME280;52491;45.900;6.346;2023-04-24T03:32:34;93279.31;;;23.97;32.80
65359;BME280;52491;45.900;6.346;2023-04-24T03:35:00;93279.59;;;23.96;32.78
65359;BME280;52491;45.900;6.346;2023-04-24T03:37:26;93284.94;;;23.96;32.85
65359;BME280;52491;45.900;6.346;2023-04-24T03:39:52;93285.47;;;23.98;32.66
65359;BME280;52491;45.900;6.346;2023-04-24T03:42:17;93283.59;;;23.98;32.54
65359;BME280;52491;45.900;6.346;2023-04-24T03:44:43;93279.31;;;23.97;32.77
65359;BME280;52491;45.900;6.346;2023-04-24T03:47:08;93279.06;;;23.99;32.70
65359;BME280;52491;45.900;6.346;2023-04-24T03:49:34;93275.31;;;24.00;32.90
65359;BME280;52491;45.900;6.346;2023-04-24T03:51:59;93275.03;;;24.01;32.66
65359;BME280;52491;45.900;6.346;2023-04-24T03:54:25;93272.66;;;24.00;32.62
65359;BME280;52491;45.900;6.346;2023-04-24T03:56:51;93284.13;;;24.00;32.89
65359;BME280;52491;45.900;6.346;2023-04-24T03:59:16;93280.38;;;24.01;32.79
65359;BME280;52491;45.900;6.346;2023-04-24T04:01:42;93285.69;;;24.01;32.47
65359;BME280;52491;45.900;6.346;2023-04-24T04:04:07;93285.69;;;24.01;32.50
65359;BME280;52491;45.900;6.346;2023-04-24T04:06:34;93290.72;;;24.03;32.77
65359;BME280;52491;45.900;6.346;2023-04-24T04:09:00;93293.41;;;24.03;32.72
65359;BME280;52491;45.900;6.346;2023-04-24T04:11:26;93300.59;;;24.02;32.69
65359;BME280;52491;45.900;6.346;2023-04-24T04:13:52;93287.28;;;24.02;32.50
65359;BME280;52491;45.900;6.346;2023-04-24T04:16:18;93288.06;;;24.03;32.47
65359;BME280;52491;45.900;6.346;2023-04-24T04:18:44;93291.03;;;24.01;32.79
65359;BME280;52491;45.900;6.346;2023-04-24T04:21:10;93294.47;;;24.02;32.60
65359;BME280;52491;45.900;6.346;2023-04-24T04:23:36;93295.28;;;24.02;32.52
65359;BME280;52491;45.900;6.346;2023-04-24T04:26:02;93286.50;;;24.02;32.65
65359;BME280;52491;45.900;6.346;2023-04-24T04:28:29;93286.50;;;24.02;32.44
65359;BME280;52491;45.900;6.346;2023-04-24T04:30:56;93290.72;;;24.03;32.69
65359;BME280;52491;45.900;6.346;2023-04-24T04:33:23;93288.06;;;24.03;32.66
65359;BME280;52491;45.900;6.346;2023-04-24T04:35:49;93286.50;;;24.02;32.58
65359;BME280;52491;45.900;6.346;2023-04-24T04:38:15;93289.94;;;24.02;32.50
65359;BME280;52491;45.900;6.346;2023-04-24T04:40:42;93294.47;;;24.02;32.50
65359;BME280;52491;45.900;6.346;2023-04-24T04:43:08;93293.69;;;24.01;32.78
65359;BME280;52491;45.900;6.346;2023-04-24T04:45:33;93291.81;;;24.02;32.79
65359;BME280;52491;45.900;6.346;2023-04-24T04:48:00;93292.59;;;24.02;32.77
65359;BME280;52491;45.900;6.346;2023-04-24T04:50:27;93293.41;;;24.03;32.78
65359;BME280;52491;45.900;6.346;2023-04-24T04:52:53;93288.59;;;24.05;32.57
65359;BME280;52491;45.900;6.346;2023-04-24T04:55:18;93297.38;;;24.05;32.65
65359;BME280;52491;45.900;6.346;2023-04-24T04:57:47;93290.22;;;24.06;32.53
65359;BME280;52491;45.900;6.346;2023-04-24T05:00:12;93298.19;;;24.06;32.58
65359;BME280;52491;45.900;6.346;2023-04-24T05:02:39;93294.47;;;24.07;32.74
65359;BME280;52491;45.900;6.346;2023-04-24T05:05:05;93287.53;;;24.06;32.63
65359;BME280;52491;45.900;6.346;2023-04-24T05:07:32;93295.25;;;24.07;32.85
65359;BME280;52491;45.900;6.346;2023-04-24T05:09:59;93295.53;;;24.06;32.93
65359;BME280;52491;45.900;6.346;2023-04-24T05:12:24;93294.47;;;24.07;32.91
65359;BME280;52491;45.900;6.346;2023-04-24T05:14:50;93301.38;;;24.08;32.87
65359;BME280;52491;45.900;6.346;2023-04-24T05:17:15;93298.19;;;24.06;33.16
65359;BME280;52491;45.900;6.346;2023-04-24T05:19:41;93297.91;;;24.07;32.85
65359;BME280;52491;45.900;6.346;2023-04-24T05:22:07;93303.75;;;24.09;33.07
65359;BME280;52491;45.900;6.346;2023-04-24T05:24:35;93304.03;;;24.08;33.01
65359;BME280;52491;45.900;6.346;2023-04-24T05:27:01;93309.88;;;24.10;33.04
65359;BME280;52491;45.900;6.346;2023-04-24T05:29:28;93315.47;;;24.08;33.35
65359;BME280;52491;45.900;6.346;2023-04-24T05:31:56;93319.75;;;24.09;33.43
65359;BME280;52491;45.900;6.346;2023-04-24T05:34:21;93331.19;;;24.10;33.25
65359;BME280;52491;45.900;6.346;2023-04-24T05:36:47;93333.84;;;24.10;33.32
65359;BME280;52491;45.900;6.346;2023-04-24T05:39:13;93341.03;;;24.09;33.25
65359;BME280;52491;45.900;6.346;2023-04-24T05:41:40;93335.72;;;24.09;33.21
65359;BME280;52491;45.900;6.346;2023-04-24T05:44:05;93347.16;;;24.10;33.53
65359;BME280;52491;45.900;6.346;2023-04-24T05:46:31;93347.16;;;24.10;33.31
65359;BME280;52491;45.900;6.346;2023-04-24T05:48:57;93338.09;;;24.11;33.25
65359;BME280;52491;45.900;6.346;2023-04-24T05:51:23;93348.75;;;24.11;33.57
65359;BME280;52491;45.900;6.346;2023-04-24T05:53:49;93348.50;;;24.07;32.09
65359;BME280;52491;45.900;6.346;2023-04-24T05:56:15;93361.13;;;23.81;32.12
65359;BME280;52491;45.900;6.346;2023-04-24T05:58:41;93360.09;;;23.57;32.48
65359;BME280;52491;45.900;6.346;2023-04-24T06:01:06;93371.00;;;23.55;32.49
65359;BME280;52491;45.900;6.346;2023-04-24T06:03:32;93363.00;;;23.60;32.41
65359;BME280;52491;45.900;6.346;2023-04-24T06:05:58;93362.19;;;23.65;32.37
65359;BME280;52491;45.900;6.346;2023-04-24T06:08:23;93359.78;;;23.68;32.54
65359;BME280;52491;45.900;6.346;2023-04-24T06:10:49;93362.72;;;23.72;32.52
65359;BME280;52491;45.900;6.346;2023-04-24T06:13:15;93366.72;;;23.75;32.53
65359;BME280;52491;45.900;6.346;2023-04-24T06:15:41;93382.44;;;23.76;32.64
65359;BME280;52491;45.900;6.346;2023-04-24T06:18:07;93380.31;;;23.78;32.64
65359;BME280;52491;45.900;6.346;2023-04-24T06:20:35;93376.56;;;23.79;32.56
65359;BME280;52491;45.900;6.346;2023-04-24T06:23:01;93383.75;;;23.79;32.62
65359;BME280;52491;45.900;6.346;2023-04-24T06:25:27;93385.09;;;23.81;32.84
65359;BME280;52491;45.900;6.346;2023-04-24T06:27:53;93384.78;;;23.83;32.65
65359;BME280;52491;45.900;6.346;2023-04-24T06:30:19;93392.53;;;23.84;32.92
65359;BME280;52491;45.900;6.346;2023-04-24T06:32:45;93389.88;;;23.84;32.89
65359;BME280;52491;45.900;6.346;2023-04-24T06:35:10;93390.41;;;23.86;32.82
65359;BME280;52491;45.900;6.346;2023-04-24T06:37:39;93404.50;;;23.87;32.87
65359;BME280;52491;45.900;6.346;2023-04-24T06:40:05;93401.84;;;23.87;32.94
65359;BME280;52491;45.900;6.346;2023-04-24T06:42:31;93398.38;;;23.86;32.99
65359;BME280;52491;45.900;6.346;2023-04-24T06:44:56;93389.56;;;23.86;32.88
65359;BME280;52491;45.900;6.346;2023-04-24T06:47:22;93393.84;;;23.87;32.95
65359;BME280;52491;45.900;6.346;2023-04-24T06:49:48;93391.19;;;23.87;33.04
65359;BME280;52491;45.900;6.346;2023-04-24T06:52:16;93389.06;;;23.89;32.96
65359;BME280;52491;45.900;6.346;2023-04-24T06:54:41;93397.84;;;23.89;32.82
65359;BME280;52491;45.900;6.346;2023-04-24T06:57:08;93406.88;;;23.88;32.85
65359;BME280;52491;45.900;6.346;2023-04-24T06:59:34;93402.38;;;23.89;33.16
65359;BME280;52491;45.900;6.346;2023-04-24T07:01:59;93403.16;;;23.89;32.82
65359;BME280;52491;45.900;6.346;2023-04-24T07:04:25;93405.53;;;23.91;32.96
65359;BME280;52491;45.900;6.346;2023-04-24T07:06:51;93414.59;;;23.90;33.09
65359;BME280;52491;45.900;6.346;2023-04-24T07:09:19;93415.41;;;23.90;32.97
65359;BME280;52491;45.900;6.346;2023-04-24T07:11:45;93431.38;;;23.90;32.85
65359;BME280;52491;45.900;6.346;2023-04-24T07:14:11;93432.94;;;23.92;32.93
65359;BME280;52491;45.900;6.346;2023-04-24T07:16:37;93429.50;;;23.91;32.97
65359;BME280;52491;45.900;6.346;2023-04-24T07:19:03;93423.38;;;23.90;32.86
65359;BME280;52491;45.900;6.346;2023-04-24T07:21:28;93420.72;;;23.90;33.03
65359;BME280;52491;45.900;6.346;2023-04-24T07:23:54;93428.72;;;23.90;32.94
65359;BME280;52491;45.900;6.346;2023-04-24T07:26:20;93427.63;;;23.92;33.05
65359;BME280;52491;45.900;6.346;2023-04-24T07:28:46;93433.25;;;23.90;32.85
65359;BME280;52491;45.900;6.346;2023-04-24T07:31:11;93425.78;;;23.92;32.99
65359;BME280;52491;45.900;6.346;2023-04-24T07:33:37;93420.72;;;23.90;32.86
65359;BME280;52491;45.900;6.346;2023-04-24T07:36:03;93424.19;;;23.91;32.87
65359;BME280;52491;45.900;6.346;2023-04-24T07:38:30;93436.69;;;23.90;33.03
65359;BME280;52491;45.900;6.346;2023-04-24T07:40:55;93440.16;;;23.91;32.93
65359;BME280;52491;45.900;6.346;2023-04-24T07:43:21;93448.94;;;23.92;32.92
65359;BME280;52491;45.900;6.346;2023-04-24T07:45:51;93463.31;;;23.90;33.03
65359;BME280;52491;45.900;6.346;2023-04-24T07:48:17;93472.38;;;23.89;32.86
65359;BME280;52491;45.900;6.346;2023-04-24T07:50:44;93465.19;;;23.90;32.97
65359;BME280;52491;45.900;6.346;2023-04-24T07:53:09;93468.63;;;23.90;32.74
65359;BME280;52491;45.900;6.346;2023-04-24T07:55:35;93481.16;;;23.90;32.93
65359;BME280;52491;45.900;6.346;2023-04-24T07:58:01;93484.91;;;23.89;32.93
65359;BME280;52491;45.900;6.346;2023-04-24T08:00:26;93492.88;;;23.89;32.87
65359;BME280;52491;45.900;6.346;2023-04-24T08:02:52;93488.59;;;23.88;32.94
65359;BME280;52491;45.900;6.346;2023-04-24T08:05:18;93497.38;;;23.88;33.00
65359;BME280;52491;45.900;6.346;2023-04-24T08:07:43;93499.25;;;23.88;32.95
65359;BME280;52491;45.900;6.346;2023-04-24T08:10:11;93503.53;;;23.89;33.02
65359;BME280;52491;45.900;6.346;2023-04-24T08:12:37;93502.72;;;23.88;32.91
65359;BME280;52491;45.900;6.346;2023-04-24T08:15:04;93503.78;;;23.87;32.70
65359;BME280;52491;45.900;6.346;2023-04-24T08:17:30;93505.38;;;23.88;33.02
65359;BME280;52491;45.900;6.346;2023-04-24T08:19:55;93509.91;;;23.88;32.98
65359;BME280;52491;45.900;6.346;2023-04-24T08:22:27;93513.38;;;23.88;32.96
65359;BME280;52491;45.900;6.346;2023-04-24T08:24:54;93524.00;;;23.88;32.81
65359;BME280;52491;45.900;6.346;2023-04-24T08:27:19;93528.81;;;23.86;32.63
65359;BME280;52491;45.900;6.346;2023-04-24T08:29:45;93522.69;;;23.86;32.78
65359;BME280;52491;45.900;6.346;2023-04-24T08:32:11;93526.16;;;23.86;32.67
65359;BME280;52491;45.900;6.346;2023-04-24T08:34:36;93534.16;;;23.86;33.00
65359;BME280;52491;45.900;6.346;2023-04-24T08:37:02;93530.66;;;23.86;32.84
65359;BME280;52491;45.900;6.346;2023-04-24T08:39:28;93535.19;;;23.85;32.89
65359;BME280;52491;45.900;6.346;2023-04-24T08:41:55;93533.31;;;23.86;32.92
65359;BME280;52491;45.900;6.346;2023-04-24T08:44:20;93543.19;;;23.85;32.76
65359;BME280;52491;45.900;6.346;2023-04-24T08:46:48;93536.28;;;23.84;32.96
65359;BME280;52491;45.900;6.346;2023-04-24T08:49:14;93537.59;;;23.87;32.75
65359;BME280;52491;45.900;6.346;2023-04-24T08:51:43;93541.59;;;23.84;32.71
65359;BME280;52491;45.900;6.346;2023-04-24T13:24:01;93466.78;;;23.91;33.10
65359;BME280;52491;45.900;6.346;2023-04-24T13:26:27;93467.84;;;23.95;32.98
65359;BME280;52491;45.900;6.346;2023-04-24T13:28:52;93452.13;;;23.99;32.89
65359;BME280;52491;45.900;6.346;2023-04-24T13:31:18;93447.31;;;24.01;32.78
65359;BME280;52491;45.900;6.346;2023-04-24T13:33:43;93448.13;;;24.01;33.01
65359;BME280;52491;45.900;6.346;2023-04-24T13:36:09;93440.94;;;24.02;33.09
65359;BME280;52491;45.900;6.346;2023-04-24T13:38:34;93447.59;;;23.99;33.10
65359;BME280;52491;45.900;6.346;2023-04-24T13:41:00;93428.16;;;23.99;32.83
65359;BME280;52491;45.900;6.346;2023-04-24T13:43:26;93434.28;;;23.99;33.17
65359;BME280;52491;45.900;6.346;2023-04-24T13:45:52;93438.00;;;23.98;33.19
65359;BME280;52491;45.900;6.346;2023-04-24T13:48:17;93422.56;;;24.00;32.85
65359;BME280;52491;45.900;6.346;2023-04-24T13:50:43;93421.75;;;24.00;33.05
65359;BME280;52491;45.900;6.346;2023-04-24T13:53:09;93421.75;;;24.00;32.89
65359;BME280;52491;45.900;6.346;2023-04-24T13:55:35;93419.91;;;24.00;32.95
65359;BME280;52491;45.900;6.346;2023-04-24T13:58:02;93426.81;;;24.01;33.05
65359;BME280;52491;45.900;6.346;2023-04-24T14:00:28;93418.84;;;24.01;32.93
65359;BME280;52491;45.900;6.346;2023-04-24T14:02:53;93406.59;;;24.00;33.06
65359;BME280;52491;45.900;6.346;2023-04-24T14:05:19;93406.59;;;24.00;33.17
65359;BME280;52491;45.900;6.346;2023-04-24T14:07:46;93403.13;;;24.00;32.98
65359;BME280;52491;45.900;6.346;2023-04-24T14:10:12;93401.28;;;24.00;32.79
65359;BME280;52491;45.900;6.346;2023-04-24T14:12:38;93396.75;;;24.01;32.79
65359;BME280;52491;45.900;6.346;2023-04-24T14:15:04;93395.13;;;24.00;32.96
65359;BME280;52491;45.900;6.346;2023-04-24T14:17:30;93386.34;;;23.99;33.06
65359;BME280;52491;45.900;6.346;2023-04-24T14:19:56;93391.41;;;24.01;33.03
65359;BME280;52491;45.900;6.346;2023-04-24T14:22:22;93388.75;;;24.01;32.83
65359;BME280;52491;45.900;6.346;2023-04-24T14:24:48;93390.88;;;24.04;32.70
65359;BME280;52491;45.900;6.346;2023-04-24T14:27:13;93376.75;;;24.03;32.89
65359;BME280;52491;45.900;6.346;2023-04-24T14:29:39;93379.69;;;24.02;32.89
65359;BME280;52491;45.900;6.346;2023-04-24T14:32:05;93383.44;;;24.01;32.92
65359;BME280;52491;45.900;6.346;2023-04-24T14:34:30;93382.34;;;24.02;32.73
65359;BME280;52491;45.900;6.346;2023-04-24T14:36:56;93376.22;;;24.01;32.83
65359;BME280;52491;45.900;6.346;2023-04-24T14:39:21;93370.13;;;24.01;32.72
65359;BME280;52491;45.900;6.346;2023-04-24T14:41:47;93366.38;;;24.02;32.93
65359;BME280;52491;45.900;6.346;2023-04-24T14:44:13;93377.03;;;24.02;32.71
65359;BME280;52491;45.900;6.346;2023-04-24T14:46:38;93360.25;;;24.01;32.79
65359;BME280;52491;45.900;6.346;2023-04-24T14:49:04;93369.81;;;24.02;32.93
65359;BME280;52491;45.900;6.346;2023-04-24T14:51:30;93370.91;;;24.01;33.01
65359;BME280;52491;45.900;6.346;2023-04-24T14:53:56;93369.03;;;24.02;32.86
65359;BME280;52491;45.900;6.346;2023-04-24T14:56:22;93361.03;;;24.02;32.75
65359;BME280;52491;45.900;6.346;2023-04-24T14:58:48;93359.16;;;24.02;32.59
65359;BME280;52491;45.900;6.346;2023-04-24T15:01:14;93357.31;;;24.03;32.71
65359;BME280;52491;45.900;6.346;2023-04-24T15:03:39;93361.03;;;24.02;32.92
65359;BME280;52491;45.900;6.346;2023-04-24T15:06:05;93357.59;;;24.01;32.66
65359;BME280;52491;45.900;6.346;2023-04-24T15:08:31;93366.38;;;24.02;32.71
65359;BME280;52491;45.900;6.346;2023-04-24T15:10:56;93356.50;;;24.02;32.58
65359;BME280;52491;45.900;6.346;2023-04-24T15:13:22;93359.97;;;24.03;32.65
65359;BME280;52491;45.900;6.346;2023-04-24T15:15:48;93369.81;;;24.02;32.71
65359;BME280;52491;45.900;6.346;2023-04-24T15:18:13;93367.94;;;24.03;32.56
65359;BME280;52491;45.900;6.346;2023-04-24T15:20:39;93356.50;;;24.02;32.58
65359;BME280;52491;45.900;6.346;2023-04-24T15:23:05;93359.16;;;24.02;32.84
65359;BME280;52491;45.900;6.346;2023-04-24T15:25:31;93356.50;;;24.02;32.77
65359;BME280;52491;45.900;6.346;2023-04-24T15:27:58;93359.97;;;24.03;32.52
65359;BME280;52491;45.900;6.346;2023-04-24T15:30:24;93360.78;;;24.03;32.48
65359;BME280;52491;45.900;6.346;2023-04-24T15:32:49;93365.28;;;24.03;32.59
65359;BME280;52491;45.900;6.346;2023-04-24T15:35:15;93364.78;;;24.01;32.53
65359;BME280;52491;45.900;6.346;2023-04-24T15:37:41;93367.16;;;24.02;32.79
65359;BME280;52491;45.900;6.346;2023-04-24T15:40:08;93369.03;;;24.02;32.67
65359;BME280;52491;45.900;6.346;2023-04-24T15:42:34;93362.63;;;24.03;32.55
65359;BME280;52491;45.900;6.346;2023-04-24T15:45:00;93370.13;;;24.01;32.49
65359;BME280;52491;45.900;6.346;2023-04-24T15:47:25;93370.91;;;24.01;32.48
65359;BME280;52491;45.900;6.346;2023-04-24T15:49:51;93376.22;;;24.01;32.60
65359;BME280;52491;45.900;6.346;2023-04-24T15:52:18;93374.34;;;24.02;32.37
65359;BME280;52491;45.900;6.346;2023-04-24T15:54:43;93379.69;;;24.02;32.75
65359;BME280;52491;45.900;6.346;2023-04-24T15:57:09;93377.03;;;24.02;32.39
65359;BME280;52491;45.900;6.346;2023-04-24T15:59:35;93378.88;;;24.01;32.75
65359;BME280;52491;45.900;6.346;2023-04-24T16:02:01;93373.81;;;24.05;32.63
65359;BME280;52491;45.900;6.346;2023-04-24T16:04:29;93365.28;;;24.03;32.39
65359;BME280;52491;45.900;6.346;2023-04-24T16:06:54;93367.16;;;24.02;32.48
65359;BME280;52491;45.900;6.346;2023-04-24T16:09:21;93368.25;;;24.01;32.44
65359;BME280;52491;45.900;6.346;2023-04-24T16:11:47;93371.69;;;24.02;32.43
65359;BME280;52491;45.900;6.346;2023-04-24T16:14:13;93375.69;;;23.99;31.55
65359;BME280;52491;45.900;6.346;2023-04-24T16:16:38;93368.00;;;23.98;31.47
65359;BME280;52491;45.900;6.346;2023-04-24T16:19:04;93374.13;;;23.98;31.63
65359;BME280;52491;45.900;6.346;2023-04-24T16:21:32;93373.81;;;24.00;31.92
65359;BME280;52491;45.900;6.346;2023-04-24T16:23:58;93372.25;;;23.99;31.80
65359;BME280;52491;45.900;6.346;2023-04-24T16:26:25;93382.09;;;23.98;32.08
65359;BME280;52491;45.900;6.346;2023-04-24T16:28:50;93370.13;;;24.01;32.10
65359;BME280;52491;45.900;6.346;2023-04-24T16:31:16;93383.69;;;23.99;31.94
65359;BME280;52491;45.900;6.346;2023-04-24T16:33:42;93375.16;;;23.97;32.07
65359;BME280;52491;45.900;6.346;2023-04-24T16:36:07;93376.78;;;23.98;32.27
65359;BME280;52491;45.900;6.346;2023-04-24T16:38:34;93378.66;;;23.98;32.09
65359;BME280;52491;45.900;6.346;2023-04-24T16:41:00;93385.03;;;23.97;31.99
65359;BME280;52491;45.900;6.346;2023-04-24T16:43:25;93380.50;;;23.97;32.20
65359;BME280;52491;45.900;6.346;2023-04-24T16:45:52;93376.78;;;23.98;32.08
65359;BME280;52491;45.900;6.346;2023-04-24T16:48:18;93371.72;;;23.97;31.14
65359;BME280;52491;45.900;6.346;2023-04-24T16:50:44;93368.28;;;23.86;30.02
65359;BME280;52491;45.900;6.346;2023-04-24T16:53:10;93380.25;;;23.83;29.88
65359;BME280;52491;45.900;6.346;2023-04-24T16:55:37;93387.19;;;23.84;30.58
65359;BME280;52491;45.900;6.346;2023-04-24T16:58:02;93369.34;;;23.85;30.66
65359;BME280;52491;45.900;6.346;2023-04-24T17:00:28;93378.66;;;23.87;31.05
65359;BME280;52491;45.900;6.346;2023-04-24T17:02:53;93373.09;;;23.89;31.31
65359;BME280;52491;45.900;6.346;2023-04-24T17:05:19;93378.13;;;23.90;31.23
65359;BME280;52491;45.900;6.346;2023-04-24T17:07:48;93377.03;;;23.92;31.39
65359;BME280;52491;45.900;6.346;2023-04-24T17:10:14;93369.59;;;23.94;31.71
65359;BME280;52491;45.900;6.346;2023-04-24T17:12:41;93373.34;;;23.93;31.80
65359;BME280;52491;45.900;6.346;2023-04-24T17:15:06;93364.81;;;23.90;32.01
65359;BME280;52491;45.900;6.346;2023-04-24T17:17:32;93377.88;;;23.92;31.99
65359;BME280;52491;45.900;6.346;2023-04-24T17:19:58;93377.88;;;23.92;32.12
65359;BME280;52491;45.900;6.346;2023-04-24T17:22:23;93377.88;;;23.92;32.28